YBRK

Rockhampton Airport

Airport
ICAO code
YBRK
IATA Code
ROK
Summary
ICAO Region
APAC
ICAO Territory
Location

, Queensland

Serving
Rockhampton
Elevation
34 ft
Coordinates
23° 22' 55" S , 150° 28' 31" E
Metar
Observation
YBRK 021330Z AUTO 00000KT 9999 // SCT089 20/18 Q1010 RF00.0/000.0
Station
Rockhampton Airport
Date/Time
2022-12-02 13:30:00
Wind direction
Wind speed
00 kts
Lowest cloud amount
scattered clouds
Temperature
20°C
Dew point
18°C
Humidity
88%
QNH
1010 hPa
Weather condition
n/a

Airport map

Aerial View

SKYbrary Partners:

Safety knowledge contributed by: